sensor_id;sensor_type;location;lat;lon;timestamp;P1;durP1;ratioP1;P2;durP2;ratioP2
42192;SDS011;52467;40.114;18.306;2022-08-19T00:00:59;16.48;;;6.05;;
42192;SDS011;52467;40.114;18.306;2022-08-19T00:03:26;15.65;;;6.05;;
42192;SDS011;52467;40.114;18.306;2022-08-19T00:05:53;14.63;;;5.72;;
42192;SDS011;52467;40.114;18.306;2022-08-19T00:08:21;16.90;;;6.20;;
42192;SDS011;52467;40.114;18.306;2022-08-19T00:10:48;14.65;;;6.13;;
42192;SDS011;52467;40.114;18.306;2022-08-19T00:13:16;18.52;;;6.18;;
42192;SDS011;52467;40.114;18.306;2022-08-19T00:15:43;14.30;;;5.28;;
42192;SDS011;52467;40.114;18.306;2022-08-19T00:18:11;15.00;;;5.93;;
42192;SDS011;52467;40.114;18.306;2022-08-19T00:20:38;15.18;;;6.50;;
42192;SDS011;52467;40.114;18.306;2022-08-19T00:23:06;16.10;;;6.80;;
42192;SDS011;52467;40.114;18.306;2022-08-19T00:25:34;17.27;;;6.53;;
42192;SDS011;52467;40.114;18.306;2022-08-19T00:28:03;17.10;;;5.80;;
42192;SDS011;52467;40.114;18.306;2022-08-19T00:30:30;16.65;;;6.13;;
42192;SDS011;52467;40.114;18.306;2022-08-19T00:32:58;16.48;;;6.20;;
42192;SDS011;52467;40.114;18.306;2022-08-19T00:35:26;16.38;;;6.68;;
42192;SDS011;52467;40.114;18.306;2022-08-19T00:37:54;14.43;;;6.07;;
42192;SDS011;52467;40.114;18.306;2022-08-19T00:40:21;17.60;;;6.60;;
42192;SDS011;52467;40.114;18.306;2022-08-19T00:42:49;14.57;;;6.50;;
42192;SDS011;52467;40.114;18.306;2022-08-19T00:45:21;26.50;;;8.43;;
42192;SDS011;52467;40.114;18.306;2022-08-19T00:47:50;23.70;;;8.25;;
42192;SDS011;52467;40.114;18.306;2022-08-19T00:50:18;22.02;;;8.25;;
42192;SDS011;52467;40.114;18.306;2022-08-19T00:52:48;23.27;;;9.27;;
42192;SDS011;52467;40.114;18.306;2022-08-19T00:55:18;25.45;;;9.13;;
42192;SDS011;52467;40.114;18.306;2022-08-19T00:57:49;19.48;;;8.32;;
42192;SDS011;52467;40.114;18.306;2022-08-19T01:00:21;24.03;;;9.63;;
42192;SDS011;52467;40.114;18.306;2022-08-19T01:02:49;20.70;;;8.25;;
42192;SDS011;52467;40.114;18.306;2022-08-19T01:05:18;21.42;;;8.05;;
42192;SDS011;52467;40.114;18.306;2022-08-19T01:07:48;16.10;;;6.95;;
42192;SDS011;52467;40.114;18.306;2022-08-19T01:10:18;18.63;;;6.65;;
42192;SDS011;52467;40.114;18.306;2022-08-19T01:12:47;18.88;;;6.55;;
42192;SDS011;52467;40.114;18.306;2022-08-19T01:15:17;16.95;;;6.72;;
42192;SDS011;52467;40.114;18.306;2022-08-19T01:17:47;14.80;;;7.77;;
42192;SDS011;52467;40.114;18.306;2022-08-19T01:20:17;11.85;;;5.07;;
42192;SDS011;52467;40.114;18.306;2022-08-19T01:22:48;15.82;;;5.82;;
42192;SDS011;52467;40.114;18.306;2022-08-19T01:25:19;11.40;;;5.00;;
42192;SDS011;52467;40.114;18.306;2022-08-19T01:28:03;13.73;;;5.65;;
42192;SDS011;52467;40.114;18.306;2022-08-19T01:30:32;13.98;;;5.85;;
42192;SDS011;52467;40.114;18.306;2022-08-19T01:33:01;15.93;;;6.47;;
42192;SDS011;52467;40.114;18.306;2022-08-19T01:35:29;16.02;;;6.07;;
42192;SDS011;52467;40.114;18.306;2022-08-19T01:38:02;15.65;;;6.05;;
42192;SDS011;52467;40.114;18.306;2022-08-19T01:40:35;13.10;;;5.93;;
42192;SDS011;52467;40.114;18.306;2022-08-19T01:43:05;16.75;;;5.60;;
42192;SDS011;52467;40.114;18.306;2022-08-19T01:45:33;13.95;;;6.03;;
42192;SDS011;52467;40.114;18.306;2022-08-19T01:48:02;11.65;;;5.18;;
42192;SDS011;52467;40.114;18.306;2022-08-19T01:50:31;20.48;;;5.40;;
42192;SDS011;52467;40.114;18.306;2022-08-19T01:53:00;15.15;;;5.03;;
42192;SDS011;52467;40.114;18.306;2022-08-19T01:55:30;10.90;;;5.68;;
42192;SDS011;52467;40.114;18.306;2022-08-19T01:57:58;11.13;;;5.07;;
42192;SDS011;52467;40.114;18.306;2022-08-19T02:00:28;10.50;;;4.80;;
42192;SDS011;52467;40.114;18.306;2022-08-19T02:02:56;16.10;;;5.45;;
42192;SDS011;52467;40.114;18.306;2022-08-19T02:05:24;10.43;;;4.63;;
42192;SDS011;52467;40.114;18.306;2022-08-19T02:07:51;13.23;;;4.82;;
42192;SDS011;52467;40.114;18.306;2022-08-19T02:10:20;11.07;;;4.73;;
42192;SDS011;52467;40.114;18.306;2022-08-19T02:12:48;14.80;;;5.03;;
42192;SDS011;52467;40.114;18.306;2022-08-19T02:15:17;16.83;;;5.10;;
42192;SDS011;52467;40.114;18.306;2022-08-19T02:17:48;10.05;;;5.07;;
42192;SDS011;52467;40.114;18.306;2022-08-19T02:20:16;11.85;;;5.03;;
42192;SDS011;52467;40.114;18.306;2022-08-19T02:22:43;9.90;;;4.05;;
42192;SDS011;52467;40.114;18.306;2022-08-19T02:25:12;11.43;;;4.50;;
42192;SDS011;52467;40.114;18.306;2022-08-19T02:27:40;10.80;;;4.80;;
42192;SDS011;52467;40.114;18.306;2022-08-19T02:30:10;13.23;;;4.63;;
42192;SDS011;52467;40.114;18.306;2022-08-19T02:32:44;9.95;;;4.35;;
42192;SDS011;52467;40.114;18.306;2022-08-19T02:35:12;12.00;;;4.47;;
42192;SDS011;52467;40.114;18.306;2022-08-19T02:37:41;9.80;;;4.07;;
42192;SDS011;52467;40.114;18.306;2022-08-19T02:40:29;10.73;;;4.47;;
42192;SDS011;52467;40.114;18.306;2022-08-19T02:43:04;11.05;;;4.15;;
42192;SDS011;52467;40.114;18.306;2022-08-19T02:45:34;13.17;;;4.67;;
42192;SDS011;52467;40.114;18.306;2022-08-19T02:48:03;12.53;;;4.23;;
42192;SDS011;52467;40.114;18.306;2022-08-19T02:50:31;10.63;;;4.78;;
42192;SDS011;52467;40.114;18.306;2022-08-19T02:52:59;10.73;;;4.72;;
42192;SDS011;52467;40.114;18.306;2022-08-19T02:55:26;13.45;;;4.07;;
42192;SDS011;52467;40.114;18.306;2022-08-19T02:58:23;12.80;;;4.20;;
42192;SDS011;52467;40.114;18.306;2022-08-19T03:00:52;13.88;;;4.93;;
42192;SDS011;52467;40.114;18.306;2022-08-19T03:03:21;14.38;;;4.95;;
42192;SDS011;52467;40.114;18.306;2022-08-19T03:05:50;15.60;;;6.25;;
42192;SDS011;52467;40.114;18.306;2022-08-19T03:08:17;17.63;;;5.60;;
42192;SDS011;52467;40.114;18.306;2022-08-19T03:10:45;19.13;;;6.53;;
42192;SDS011;52467;40.114;18.306;2022-08-19T03:13:15;14.18;;;4.97;;
42192;SDS011;52467;40.114;18.306;2022-08-19T03:15:45;13.57;;;5.43;;
42192;SDS011;52467;40.114;18.306;2022-08-19T03:18:13;13.52;;;4.75;;
42192;SDS011;52467;40.114;18.306;2022-08-19T03:20:44;13.07;;;5.88;;
42192;SDS011;52467;40.114;18.306;2022-08-19T03:23:14;14.60;;;5.78;;
42192;SDS011;52467;40.114;18.306;2022-08-19T03:25:44;10.05;;;4.47;;
42192;SDS011;52467;40.114;18.306;2022-08-19T03:28:14;12.07;;;4.50;;
42192;SDS011;52467;40.114;18.306;2022-08-19T03:30:42;14.70;;;4.57;;
42192;SDS011;52467;40.114;18.306;2022-08-19T03:33:10;11.70;;;4.68;;
42192;SDS011;52467;40.114;18.306;2022-08-19T03:35:40;12.85;;;5.18;;
42192;SDS011;52467;40.114;18.306;2022-08-19T03:38:08;9.77;;;4.55;;
42192;SDS011;52467;40.114;18.306;2022-08-19T03:40:38;12.30;;;4.20;;
42192;SDS011;52467;40.114;18.306;2022-08-19T03:43:06;8.05;;;3.95;;
42192;SDS011;52467;40.114;18.306;2022-08-19T03:45:33;14.07;;;4.43;;
42192;SDS011;52467;40.114;18.306;2022-08-19T03:48:00;11.90;;;4.10;;
42192;SDS011;52467;40.114;18.306;2022-08-19T03:50:28;11.88;;;4.50;;
42192;SDS011;52467;40.114;18.306;2022-08-19T03:52:56;8.98;;;4.32;;
42192;SDS011;52467;40.114;18.306;2022-08-19T03:55:23;14.50;;;4.63;;
42192;SDS011;52467;40.114;18.306;2022-08-19T03:57:51;8.77;;;3.80;;
42192;SDS011;52467;40.114;18.306;2022-08-19T04:00:19;8.65;;;4.25;;
42192;SDS011;52467;40.114;18.306;2022-08-19T04:02:47;55.03;;;22.40;;
42192;SDS011;52467;40.114;18.306;2022-08-19T04:05:14;143.90;;;58.17;;
42192;SDS011;52467;40.114;18.306;2022-08-19T04:07:42;87.43;;;36.60;;
42192;SDS011;52467;40.114;18.306;2022-08-19T04:10:09;61.75;;;24.40;;
42192;SDS011;52467;40.114;18.306;2022-08-19T04:12:37;42.83;;;15.90;;
42192;SDS011;52467;40.114;18.306;2022-08-19T04:15:05;23.80;;;8.63;;
42192;SDS011;52467;40.114;18.306;2022-08-19T04:17:35;15.63;;;5.73;;
42192;SDS011;52467;40.114;18.306;2022-08-19T04:20:02;11.50;;;5.05;;
42192;SDS011;52467;40.114;18.306;2022-08-19T04:22:30;14.65;;;6.50;;
42192;SDS011;52467;40.114;18.306;2022-08-19T04:24:57;17.75;;;7.40;;
42192;SDS011;52467;40.114;18.306;2022-08-19T04:27:25;20.73;;;7.47;;
42192;SDS011;52467;40.114;18.306;2022-08-19T04:29:53;15.60;;;5.82;;
42192;SDS011;52467;40.114;18.306;2022-08-19T04:32:21;12.43;;;4.90;;
42192;SDS011;52467;40.114;18.306;2022-08-19T04:34:49;11.32;;;3.65;;
42192;SDS011;52467;40.114;18.306;2022-08-19T04:37:16;8.82;;;3.72;;
42192;SDS011;52467;40.114;18.306;2022-08-19T04:39:44;13.40;;;3.63;;
42192;SDS011;52467;40.114;18.306;2022-08-19T04:42:33;8.75;;;3.08;;
42192;SDS011;52467;40.114;18.306;2022-08-19T04:45:07;8.63;;;3.27;;
42192;SDS011;52467;40.114;18.306;2022-08-19T04:47:37;8.68;;;3.55;;
42192;SDS011;52467;40.114;18.306;2022-08-19T04:50:07;9.00;;;3.28;;
42192;SDS011;52467;40.114;18.306;2022-08-19T04:52:38;11.52;;;3.10;;
42192;SDS011;52467;40.114;18.306;2022-08-19T04:55:10;6.65;;;3.10;;
42192;SDS011;52467;40.114;18.306;2022-08-19T04:57:38;6.88;;;2.63;;
42192;SDS011;52467;40.114;18.306;2022-08-19T05:00:09;7.53;;;2.83;;
42192;SDS011;52467;40.114;18.306;2022-08-19T05:02:38;7.70;;;2.58;;
42192;SDS011;52467;40.114;18.306;2022-08-19T05:05:05;9.23;;;2.95;;
42192;SDS011;52467;40.114;18.306;2022-08-19T05:07:33;6.25;;;2.63;;
42192;SDS011;52467;40.114;18.306;2022-08-19T05:10:02;6.38;;;2.53;;
42192;SDS011;52467;40.114;18.306;2022-08-19T05:12:32;8.38;;;3.20;;
42192;SDS011;52467;40.114;18.306;2022-08-19T05:14:59;5.65;;;2.65;;
42192;SDS011;52467;40.114;18.306;2022-08-19T05:17:27;6.88;;;3.03;;
42192;SDS011;52467;40.114;18.306;2022-08-19T05:19:56;7.65;;;2.63;;
42192;SDS011;52467;40.114;18.306;2022-08-19T05:22:43;7.93;;;2.90;;
42192;SDS011;52467;40.114;18.306;2022-08-19T05:25:13;7.07;;;2.10;;
42192;SDS011;52467;40.114;18.306;2022-08-19T05:27:45;6.43;;;2.78;;
42192;SDS011;52467;40.114;18.306;2022-08-19T05:30:13;9.63;;;2.75;;
42192;SDS011;52467;40.114;18.306;2022-08-19T05:32:41;6.03;;;2.70;;
42192;SDS011;52467;40.114;18.306;2022-08-19T05:35:09;10.48;;;2.90;;
42192;SDS011;52467;40.114;18.306;2022-08-19T05:37:37;6.15;;;2.88;;
42192;SDS011;52467;40.114;18.306;2022-08-19T05:40:07;7.55;;;3.05;;
42192;SDS011;52467;40.114;18.306;2022-08-19T05:42:35;11.98;;;3.60;;
42192;SDS011;52467;40.114;18.306;2022-08-19T05:45:04;9.18;;;2.65;;
42192;SDS011;52467;40.114;18.306;2022-08-19T05:47:31;10.98;;;3.45;;
42192;SDS011;52467;40.114;18.306;2022-08-19T05:49:59;11.75;;;3.33;;
42192;SDS011;52467;40.114;18.306;2022-08-19T05:52:28;6.85;;;3.22;;
42192;SDS011;52467;40.114;18.306;2022-08-19T05:54:56;10.13;;;3.85;;
42192;SDS011;52467;40.114;18.306;2022-08-19T05:57:24;9.63;;;4.18;;
42192;SDS011;52467;40.114;18.306;2022-08-19T05:59:51;9.65;;;3.97;;
42192;SDS011;52467;40.114;18.306;2022-08-19T06:02:20;8.43;;;3.57;;
42192;SDS011;52467;40.114;18.306;2022-08-19T06:04:48;10.82;;;3.47;;
42192;SDS011;52467;40.114;18.306;2022-08-19T06:07:16;16.73;;;4.35;;
42192;SDS011;52467;40.114;18.306;2022-08-19T06:09:43;13.85;;;3.67;;
42192;SDS011;52467;40.114;18.306;2022-08-19T06:12:11;10.85;;;3.28;;
42192;SDS011;52467;40.114;18.306;2022-08-19T06:14:38;6.00;;;3.45;;
42192;SDS011;52467;40.114;18.306;2022-08-19T06:17:06;13.48;;;3.60;;
42192;SDS011;52467;40.114;18.306;2022-08-19T06:19:34;13.13;;;3.50;;
42192;SDS011;52467;40.114;18.306;2022-08-19T06:22:03;11.52;;;3.70;;
42192;SDS011;52467;40.114;18.306;2022-08-19T06:24:31;9.37;;;3.30;;
42192;SDS011;52467;40.114;18.306;2022-08-19T06:26:58;8.10;;;3.17;;
42192;SDS011;52467;40.114;18.306;2022-08-19T06:29:26;12.38;;;3.78;;
42192;SDS011;52467;40.114;18.306;2022-08-19T06:31:55;11.48;;;3.55;;
42192;SDS011;52467;40.114;18.306;2022-08-19T06:34:25;9.40;;;3.67;;
42192;SDS011;52467;40.114;18.306;2022-08-19T06:36:55;12.67;;;3.83;;
42192;SDS011;52467;40.114;18.306;2022-08-19T06:39:24;12.00;;;3.70;;
42192;SDS011;52467;40.114;18.306;2022-08-19T06:41:54;9.45;;;3.10;;
42192;SDS011;52467;40.114;18.306;2022-08-19T06:44:29;8.30;;;2.90;;
42192;SDS011;52467;40.114;18.306;2022-08-19T06:47:01;4.90;;;2.55;;
42192;SDS011;52467;40.114;18.306;2022-08-19T06:49:30;9.32;;;2.95;;
42192;SDS011;52467;40.114;18.306;2022-08-19T06:51:58;8.90;;;3.22;;
42192;SDS011;52467;40.114;18.306;2022-08-19T06:54:26;9.48;;;2.78;;
42192;SDS011;52467;40.114;18.306;2022-08-19T06:56:56;10.50;;;2.90;;
42192;SDS011;52467;40.114;18.306;2022-08-19T06:59:29;9.20;;;2.90;;
42192;SDS011;52467;40.114;18.306;2022-08-19T07:02:00;9.65;;;2.25;;
42192;SDS011;52467;40.114;18.306;2022-08-19T07:04:31;16.92;;;2.85;;
42192;SDS011;52467;40.114;18.306;2022-08-19T07:07:10;13.75;;;2.72;;
42192;SDS011;52467;40.114;18.306;2022-08-19T07:09:40;9.13;;;3.57;;
42192;SDS011;52467;40.114;18.306;2022-08-19T07:12:09;8.52;;;2.50;;
42192;SDS011;52467;40.114;18.306;2022-08-19T07:14:38;8.65;;;2.72;;
42192;SDS011;52467;40.114;18.306;2022-08-19T07:17:07;10.57;;;3.65;;
42192;SDS011;52467;40.114;18.306;2022-08-19T07:19:37;10.98;;;3.22;;
42192;SDS011;52467;40.114;18.306;2022-08-19T07:22:06;9.52;;;2.70;;
42192;SDS011;52467;40.114;18.306;2022-08-19T07:24:34;10.98;;;3.15;;
42192;SDS011;52467;40.114;18.306;2022-08-19T07:27:03;8.65;;;2.63;;
42192;SDS011;52467;40.114;18.306;2022-08-19T07:29:33;7.63;;;2.13;;
42192;SDS011;52467;40.114;18.306;2022-08-19T07:32:04;12.98;;;3.15;;
42192;SDS011;52467;40.114;18.306;2022-08-19T07:34:38;9.47;;;2.93;;
42192;SDS011;52467;40.114;18.306;2022-08-19T07:37:06;9.50;;;2.70;;
42192;SDS011;52467;40.114;18.306;2022-08-19T07:40:00;11.80;;;3.53;;
42192;SDS011;52467;40.114;18.306;2022-08-19T07:42:28;9.90;;;2.97;;
42192;SDS011;52467;40.114;18.306;2022-08-19T07:44:58;8.82;;;2.95;;
42192;SDS011;52467;40.114;18.306;2022-08-19T07:47:26;13.60;;;3.38;;
42192;SDS011;52467;40.114;18.306;2022-08-19T07:49:54;14.40;;;2.78;;
42192;SDS011;52467;40.114;18.306;2022-08-19T07:52:23;13.70;;;3.08;;
42192;SDS011;52467;40.114;18.306;2022-08-19T07:54:50;9.60;;;2.42;;
42192;SDS011;52467;40.114;18.306;2022-08-19T07:57:17;13.07;;;3.10;;
42192;SDS011;52467;40.114;18.306;2022-08-19T07:59:45;10.53;;;2.63;;
42192;SDS011;52467;40.114;18.306;2022-08-19T08:02:13;14.57;;;3.03;;
42192;SDS011;52467;40.114;18.306;2022-08-19T08:04:40;12.87;;;3.33;;
42192;SDS011;52467;40.114;18.306;2022-08-19T08:07:26;10.60;;;3.22;;
42192;SDS011;52467;40.114;18.306;2022-08-19T08:10:12;14.77;;;2.83;;
42192;SDS011;52467;40.114;18.306;2022-08-19T08:12:39;10.10;;;2.67;;
42192;SDS011;52467;40.114;18.306;2022-08-19T08:15:12;14.68;;;3.13;;
42192;SDS011;52467;40.114;18.306;2022-08-19T08:17:43;15.82;;;2.65;;
42192;SDS011;52467;40.114;18.306;2022-08-19T08:20:11;10.93;;;2.80;;
42192;SDS011;52467;40.114;18.306;2022-08-19T08:22:44;13.07;;;3.17;;
42192;SDS011;52467;40.114;18.306;2022-08-19T08:25:30;17.42;;;3.22;;
42192;SDS011;52467;40.114;18.306;2022-08-19T08:27:58;14.48;;;2.67;;
42192;SDS011;52467;40.114;18.306;2022-08-19T08:30:27;10.00;;;2.83;;
42192;SDS011;52467;40.114;18.306;2022-08-19T08:32:55;10.88;;;2.90;;
42192;SDS011;52467;40.114;18.306;2022-08-19T08:35:23;18.92;;;3.70;;
42192;SDS011;52467;40.114;18.306;2022-08-19T08:37:51;12.73;;;2.67;;
42192;SDS011;52467;40.114;18.306;2022-08-19T08:40:26;12.45;;;3.00;;
42192;SDS011;52467;40.114;18.306;2022-08-19T08:45:40;13.85;;;3.42;;
42192;SDS011;52467;40.114;18.306;2022-08-19T08:48:17;17.20;;;2.65;;
42192;SDS011;52467;40.114;18.306;2022-08-19T08:50:48;10.02;;;2.67;;
42192;SDS011;52467;40.114;18.306;2022-08-19T08:53:19;11.52;;;2.92;;
42192;SDS011;52467;40.114;18.306;2022-08-19T08:55:47;14.48;;;2.97;;
42192;SDS011;52467;40.114;18.306;2022-08-19T08:58:17;12.05;;;2.38;;
42192;SDS011;52467;40.114;18.306;2022-08-19T09:00:55;12.73;;;2.67;;
42192;SDS011;52467;40.114;18.306;2022-08-19T09:03:24;12.95;;;2.67;;
42192;SDS011;52467;40.114;18.306;2022-08-19T09:11:00;11.02;;;2.80;;
42192;SDS011;52467;40.114;18.306;2022-08-19T09:13:35;16.38;;;3.20;;
42192;SDS011;52467;40.114;18.306;2022-08-19T09:16:25;13.18;;;3.50;;
42192;SDS011;52467;40.114;18.306;2022-08-19T09:18:55;13.43;;;3.13;;
42192;SDS011;52467;40.114;18.306;2022-08-19T09:21:25;9.80;;;2.70;;
42192;SDS011;52467;40.114;18.306;2022-08-19T09:23:54;10.20;;;2.78;;
42192;SDS011;52467;40.114;18.306;2022-08-19T09:26:22;7.78;;;2.50;;
42192;SDS011;52467;40.114;18.306;2022-08-19T09:28:50;11.65;;;2.80;;
42192;SDS011;52467;40.114;18.306;2022-08-19T09:31:20;14.98;;;2.72;;
42192;SDS011;52467;40.114;18.306;2022-08-19T09:33:49;16.20;;;3.15;;
42192;SDS011;52467;40.114;18.306;2022-08-19T09:36:17;11.38;;;2.97;;
42192;SDS011;52467;40.114;18.306;2022-08-19T09:38:46;12.50;;;3.03;;
42192;SDS011;52467;40.114;18.306;2022-08-19T09:41:15;13.93;;;3.20;;
42192;SDS011;52467;40.114;18.306;2022-08-19T09:43:44;13.40;;;3.20;;
42192;SDS011;52467;40.114;18.306;2022-08-19T09:46:13;15.15;;;2.90;;
42192;SDS011;52467;40.114;18.306;2022-08-19T09:48:43;12.00;;;4.20;;
42192;SDS011;52467;40.114;18.306;2022-08-19T09:51:12;8.73;;;2.53;;
42192;SDS011;52467;40.114;18.306;2022-08-19T09:53:46;11.18;;;3.72;;
42192;SDS011;52467;40.114;18.306;2022-08-19T09:56:17;12.00;;;3.13;;
42192;SDS011;52467;40.114;18.306;2022-08-19T09:58:45;13.27;;;3.90;;
42192;SDS011;52467;40.114;18.306;2022-08-19T10:01:20;12.52;;;3.22;;
42192;SDS011;52467;40.114;18.306;2022-08-19T10:03:52;9.90;;;3.22;;
42192;SDS011;52467;40.114;18.306;2022-08-19T10:06:22;11.68;;;3.58;;
42192;SDS011;52467;40.114;18.306;2022-08-19T10:08:51;16.98;;;3.90;;
42192;SDS011;52467;40.114;18.306;2022-08-19T10:11:19;17.33;;;4.43;;
42192;SDS011;52467;40.114;18.306;2022-08-19T10:13:47;14.82;;;3.53;;
42192;SDS011;52467;40.114;18.306;2022-08-19T10:16:17;12.85;;;3.00;;
42192;SDS011;52467;40.114;18.306;2022-08-19T10:18:46;12.45;;;3.53;;
42192;SDS011;52467;40.114;18.306;2022-08-19T10:21:14;13.15;;;3.70;;
42192;SDS011;52467;40.114;18.306;2022-08-19T10:23:45;15.25;;;3.25;;
42192;SDS011;52467;40.114;18.306;2022-08-19T10:26:16;9.82;;;3.65;;
42192;SDS011;52467;40.114;18.306;2022-08-19T10:28:46;14.85;;;3.70;;
42192;SDS011;52467;40.114;18.306;2022-08-19T10:31:15;15.23;;;3.47;;
42192;SDS011;52467;40.114;18.306;2022-08-19T10:33:49;10.48;;;3.13;;
42192;SDS011;52467;40.114;18.306;2022-08-19T10:36:25;13.80;;;3.10;;
42192;SDS011;52467;40.114;18.306;2022-08-19T10:38:58;15.20;;;2.83;;
42192;SDS011;52467;40.114;18.306;2022-08-19T10:41:29;13.63;;;3.20;;
42192;SDS011;52467;40.114;18.306;2022-08-19T10:43:59;17.10;;;3.55;;
42192;SDS011;52467;40.114;18.306;2022-08-19T10:46:30;12.82;;;2.78;;
42192;SDS011;52467;40.114;18.306;2022-08-19T10:48:59;14.77;;;3.60;;
42192;SDS011;52467;40.114;18.306;2022-08-19T10:51:28;12.93;;;3.40;;
42192;SDS011;52467;40.114;18.306;2022-08-19T10:54:14;16.65;;;2.88;;
42192;SDS011;52467;40.114;18.306;2022-08-19T10:56:42;16.02;;;3.55;;
42192;SDS011;52467;40.114;18.306;2022-08-19T10:59:19;11.13;;;2.97;;
42192;SDS011;52467;40.114;18.306;2022-08-19T11:01:58;14.45;;;3.00;;
42192;SDS011;52467;40.114;18.306;2022-08-19T11:04:26;13.73;;;3.28;;
42192;SDS011;52467;40.114;18.306;2022-08-19T11:06:55;11.43;;;2.60;;
42192;SDS011;52467;40.114;18.306;2022-08-19T11:09:23;14.40;;;3.15;;
42192;SDS011;52467;40.114;18.306;2022-08-19T11:11:58;20.05;;;3.45;;
42192;SDS011;52467;40.114;18.306;2022-08-19T11:14:26;16.52;;;3.10;;
42192;SDS011;52467;40.114;18.306;2022-08-19T11:16:54;13.65;;;2.30;;
42192;SDS011;52467;40.114;18.306;2022-08-19T11:19:23;15.67;;;3.60;;
42192;SDS011;52467;40.114;18.306;2022-08-19T11:21:51;12.68;;;3.45;;
42192;SDS011;52467;40.114;18.306;2022-08-19T11:24:22;15.43;;;3.33;;
42192;SDS011;52467;40.114;18.306;2022-08-19T11:26:52;14.50;;;2.38;;
42192;SDS011;52467;40.114;18.306;2022-08-19T11:29:25;12.07;;;2.60;;
42192;SDS011;52467;40.114;18.306;2022-08-19T11:31:54;16.60;;;2.83;;
42192;SDS011;52467;40.114;18.306;2022-08-19T11:34:23;19.75;;;3.20;;
42192;SDS011;52467;40.114;18.306;2022-08-19T11:36:55;9.32;;;3.03;;
42192;SDS011;52467;40.114;18.306;2022-08-19T11:39:27;14.70;;;3.92;;
42192;SDS011;52467;40.114;18.306;2022-08-19T11:42:00;18.33;;;3.40;;
42192;SDS011;52467;40.114;18.306;2022-08-19T11:44:48;12.57;;;3.30;;
42192;SDS011;52467;40.114;18.306;2022-08-19T11:47:15;15.73;;;2.50;;
42192;SDS011;52467;40.114;18.306;2022-08-19T11:49:43;10.75;;;2.63;;
42192;SDS011;52467;40.114;18.306;2022-08-19T11:52:10;16.93;;;2.53;;
42192;SDS011;52467;40.114;18.306;2022-08-19T11:54:38;9.23;;;2.90;;
42192;SDS011;52467;40.114;18.306;2022-08-19T11:57:05;12.38;;;2.40;;
42192;SDS011;52467;40.114;18.306;2022-08-19T11:59:32;13.65;;;2.35;;
42192;SDS011;52467;40.114;18.306;2022-08-19T12:02:00;10.57;;;2.40;;
42192;SDS011;52467;40.114;18.306;2022-08-19T12:04:27;16.67;;;3.03;;
42192;SDS011;52467;40.114;18.306;2022-08-19T12:06:55;13.60;;;2.88;;
42192;SDS011;52467;40.114;18.306;2022-08-19T12:09:22;17.80;;;3.23;;
42192;SDS011;52467;40.114;18.306;2022-08-19T12:11:49;11.48;;;2.60;;
42192;SDS011;52467;40.114;18.306;2022-08-19T12:14:17;14.45;;;3.08;;
42192;SDS011;52467;40.114;18.306;2022-08-19T12:16:45;16.17;;;3.22;;
42192;SDS011;52467;40.114;18.306;2022-08-19T12:19:13;20.17;;;4.30;;
42192;SDS011;52467;40.114;18.306;2022-08-19T12:21:40;13.80;;;2.80;;
42192;SDS011;52467;40.114;18.306;2022-08-19T12:24:08;11.03;;;3.50;;
42192;SDS011;52467;40.114;18.306;2022-08-19T12:26:35;17.85;;;3.47;;
42192;SDS011;52467;40.114;18.306;2022-08-19T12:29:03;15.02;;;3.15;;
42192;SDS011;52467;40.114;18.306;2022-08-19T12:31:30;12.63;;;3.17;;
42192;SDS011;52467;40.114;18.306;2022-08-19T12:33:58;10.50;;;2.40;;
42192;SDS011;52467;40.114;18.306;2022-08-19T12:36:27;20.70;;;3.88;;
42192;SDS011;52467;40.114;18.306;2022-08-19T12:38:55;15.43;;;3.30;;
42192;SDS011;52467;40.114;18.306;2022-08-19T12:41:25;12.75;;;3.60;;
42192;SDS011;52467;40.114;18.306;2022-08-19T12:43:53;15.32;;;3.00;;
42192;SDS011;52467;40.114;18.306;2022-08-19T12:46:20;17.40;;;3.33;;
42192;SDS011;52467;40.114;18.306;2022-08-19T12:48:47;11.43;;;2.93;;
42192;SDS011;52467;40.114;18.306;2022-08-19T12:51:16;14.75;;;2.72;;
42192;SDS011;52467;40.114;18.306;2022-08-19T12:53:46;11.90;;;2.88;;
42192;SDS011;52467;40.114;18.306;2022-08-19T12:56:14;15.98;;;3.35;;
42192;SDS011;52467;40.114;18.306;2022-08-19T12:58:42;16.30;;;3.20;;
42192;SDS011;52467;40.114;18.306;2022-08-19T13:01:13;15.07;;;3.15;;
42192;SDS011;52467;40.114;18.306;2022-08-19T13:03:42;13.30;;;3.20;;
42192;SDS011;52467;40.114;18.306;2022-08-19T13:06:13;12.82;;;3.38;;
42192;SDS011;52467;40.114;18.306;2022-08-19T13:08:41;12.50;;;2.50;;
42192;SDS011;52467;40.114;18.306;2022-08-19T13:11:10;10.85;;;2.97;;
42192;SDS011;52467;40.114;18.306;2022-08-19T13:13:40;9.57;;;2.40;;
42192;SDS011;52467;40.114;18.306;2022-08-19T13:16:09;12.18;;;3.20;;
42192;SDS011;52467;40.114;18.306;2022-08-19T13:18:39;11.68;;;3.63;;
42192;SDS011;52467;40.114;18.306;2022-08-19T13:21:25;13.48;;;3.10;;
42192;SDS011;52467;40.114;18.306;2022-08-19T13:23:54;14.68;;;3.42;;
42192;SDS011;52467;40.114;18.306;2022-08-19T13:26:22;15.18;;;3.95;;
42192;SDS011;52467;40.114;18.306;2022-08-19T13:28:50;7.50;;;2.60;;
42192;SDS011;52467;40.114;18.306;2022-08-19T13:31:36;7.80;;;2.55;;
42192;SDS011;52467;40.114;18.306;2022-08-19T13:34:29;13.23;;;2.83;;
42192;SDS011;52467;40.114;18.306;2022-08-19T13:36:58;15.25;;;3.30;;
42192;SDS011;52467;40.114;18.306;2022-08-19T13:39:26;8.43;;;3.03;;
42192;SDS011;52467;40.114;18.306;2022-08-19T13:41:54;10.40;;;3.45;;
42192;SDS011;52467;40.114;18.306;2022-08-19T13:44:22;10.25;;;3.35;;
42192;SDS011;52467;40.114;18.306;2022-08-19T13:46:49;11.45;;;3.38;;
42192;SDS011;52467;40.114;18.306;2022-08-19T13:49:18;12.35;;;3.30;;
42192;SDS011;52467;40.114;18.306;2022-08-19T13:51:47;11.23;;;2.80;;
42192;SDS011;52467;40.114;18.306;2022-08-19T13:54:16;14.82;;;3.50;;
42192;SDS011;52467;40.114;18.306;2022-08-19T13:57:13;12.30;;;3.30;;
42192;SDS011;52467;40.114;18.306;2022-08-19T13:59:40;15.05;;;2.97;;
42192;SDS011;52467;40.114;18.306;2022-08-19T14:02:08;14.95;;;3.95;;
42192;SDS011;52467;40.114;18.306;2022-08-19T14:04:37;14.10;;;2.95;;
42192;SDS011;52467;40.114;18.306;2022-08-19T14:07:04;18.73;;;3.88;;
42192;SDS011;52467;40.114;18.306;2022-08-19T14:09:32;12.95;;;3.10;;
42192;SDS011;52467;40.114;18.306;2022-08-19T14:11:59;11.15;;;2.90;;
42192;SDS011;52467;40.114;18.306;2022-08-19T14:14:27;14.23;;;2.67;;
42192;SDS011;52467;40.114;18.306;2022-08-19T14:16:55;11.27;;;3.40;;
42192;SDS011;52467;40.114;18.306;2022-08-19T14:19:23;11.90;;;2.93;;
42192;SDS011;52467;40.114;18.306;2022-08-19T14:21:51;15.35;;;2.97;;
42192;SDS011;52467;40.114;18.306;2022-08-19T14:24:18;13.73;;;3.53;;
42192;SDS011;52467;40.114;18.306;2022-08-19T14:26:46;14.45;;;3.38;;
42192;SDS011;52467;40.114;18.306;2022-08-19T14:29:14;13.88;;;4.30;;
42192;SDS011;52467;40.114;18.306;2022-08-19T14:31:41;12.45;;;2.85;;
42192;SDS011;52467;40.114;18.306;2022-08-19T14:34:10;9.55;;;2.90;;
42192;SDS011;52467;40.114;18.306;2022-08-19T14:36:39;9.23;;;2.53;;
42192;SDS011;52467;40.114;18.306;2022-08-19T14:39:08;7.57;;;2.45;;
42192;SDS011;52467;40.114;18.306;2022-08-19T14:41:36;9.45;;;2.63;;
42192;SDS011;52467;40.114;18.306;2022-08-19T14:44:03;9.45;;;2.65;;
42192;SDS011;52467;40.114;18.306;2022-08-19T14:46:31;11.02;;;2.63;;